Virtual Norwegian is not affiliated with Norwegian Air Shuttle in any way.
If you are looking for the real "Norwegian", or you wish to book Norwegian flights, please visit Norwegian.com


We use cookies to ensure you get the best experience on our website.   ACCEPT

LEBB - BIO - Bilbao (Bilbao)

General Info Alternate Airport
ICAO: LEBB Elevation: 138 ft ICAO: LEMD
IATA: BIO Country: Spain IATA: MAD
City: Bilbao Charts: Log in to view charts City: Madrid
Name: Bilbao Hub: No Name Adolfo Suarez Madrid-Barajas
General Info
ICAO: LEBB
IATA: BIO
City: Bilbao
Name: Bilbao
Elevation: 138 ft
Country: Spain
Charts: Log in to view charts
Hub: No
 
Alternate Airport
ICAO: LEMD
IATA: MAD
City: Madrid
Name: Adolfo Suarez Madrid-Barajas

Weather
231500Z 31005KT CAVOK 21/11 Q1026 NOSIG
Weather
231500Z 31005KT CAVOK 21/11 Q1026 NOSIG

Runway Info
10
Length ILS/LOC Heading
2000 m N/A 096
12
Length ILS/LOC Course
2600 m 111.55 118
28
Length ILS/LOC Heading
2000 m N/A 276
30
Length ILS/LOC Course
2600 m 110.30 298

NOTAMs
NOTAMs currently unavailable.
NOTAMs
NOTAMs currently unavailable

Route map
Airport
Airport (hub)